Fort Benning, Georgia
Current Conditions -  °F | °C
As of 10:58 AM on Saturday 25 Oct 2014 (Local Time) from KLSF Reporting Station
Clear Clear  
Wind Chill: 60°   Ceiling: Unl
Heat Index: 60°   Visibility: 10mi
Dew Point: 50°   Wind: 7mph
Humidity: 70%   Direction: 350°N
Pressure: 30.08"   Gusts: NA
Location:  32.35°N, 84.97°W
Report Text: KLSF 251458Z AUTO 35006KT 10SM CLR 16/10 A3008 RMK AO2 SLP189 60000 T01570102 50006
Loading
Personal Weather Stations






























Interactive Weather Map
Tropical Storm Tracking
New forecast layout! Learn more

10-Day Weather Forecast

Advertisements
Track Severe Weather on mobile